Time;durP1;ratioP1;P1;durP2;ratioP2;P2;SDS_P1;SDS_P2;PMS_P1;PMS_P2;Temp;Humidity;BMP_temperature;BMP_pressure;BME280_temperature;BME280_humidity;BME280_pressure;Samples;Min_cycle;Max_cycle;Signal;HPM_P1;HPM_P2
2021/11/24 00:01:05;;;;;;;6.77;4.50;;;7.40;99.90;;;;;;5012699;28;20420;-69
2021/11/24 00:03:34;;;;;;;10.20;6.40;;;7.40;99.90;;;;;;5028148;28;20207;-67
2021/11/24 00:06:00;;;;;;;9.57;4.17;;;7.40;99.90;;;;;;5032507;28;20434;-69
2021/11/24 00:08:26;;;;;;;9.93;5.37;;;7.30;99.90;;;;;;5023102;28;20474;-68
2021/11/24 00:10:52;;;;;;;10.20;4.90;;;7.40;99.90;;;;;;5012542;28;20196;-68
2021/11/24 00:13:17;;;;;;;9.33;4.97;;;7.40;99.90;;;;;;5013267;28;20415;-67
2021/11/24 00:15:43;;;;;;;9.90;4.83;;;7.30;99.90;;;;;;5012376;28;20542;-68
2021/11/24 00:18:11;;;;;;;9.57;4.87;;;7.40;99.90;;;;;;5012601;28;20201;-68
2021/11/24 00:20:37;;;;;;;6.50;5.00;;;7.40;99.90;;;;;;5027568;28;20630;-67
2021/11/24 00:23:03;;;;;;;11.00;4.53;;;7.40;99.90;;;;;;5031665;28;20525;-68
2021/11/24 00:25:29;;;;;;;8.33;3.37;;;7.30;99.90;;;;;;5030843;28;20234;-67
2021/11/24 00:27:58;;;;;;;7.77;4.77;;;7.40;99.90;;;;;;5032050;28;20414;-68
2021/11/24 00:30:30;;;;;;;10.10;4.40;;;7.40;99.90;;;;;;5031910;28;20453;-68
2021/11/24 00:32:56;;;;;;;4.03;3.63;;;7.40;99.90;;;;;;5030907;28;20414;-68
2021/11/24 00:35:22;;;;;;;6.80;3.20;;;7.40;99.90;;;;;;5031884;28;20446;-69
2021/11/24 00:37:51;;;;;;;7.67;4.80;;;7.30;99.90;;;;;;5032056;28;20462;-69
2021/11/24 00:40:16;;;;;;;11.30;6.30;;;7.30;99.90;;;;;;5031125;28;20808;-68
2021/11/24 00:42:42;;;;;;;7.53;4.57;;;7.30;99.90;;;;;;5032518;28;20410;-68
2021/11/24 00:45:08;;;;;;;7.03;4.07;;;7.30;99.90;;;;;;5031019;28;20173;-69
2021/11/24 00:47:34;;;;;;;7.87;4.80;;;7.40;99.90;;;;;;5032321;28;20168;-70
2021/11/24 00:49:59;;;;;;;5.73;3.90;;;7.30;99.90;;;;;;5031992;28;20546;-69
2021/11/24 00:52:28;;;;;;;22.60;5.60;;;7.30;99.90;;;;;;5031919;28;20258;-71
2021/11/24 00:54:54;;;;;;;6.80;5.23;;;7.40;99.90;;;;;;5031585;28;20338;-70
2021/11/24 00:57:20;;;;;;;7.93;4.63;;;7.30;99.90;;;;;;5032089;28;20426;-69
2021/11/24 00:59:45;;;;;;;7.37;3.97;;;7.30;99.90;;;;;;5031644;28;20203;-67
2021/11/24 01:02:11;;;;;;;7.57;4.90;;;7.30;99.90;;;;;;5034419;28;20539;-69
2021/11/24 01:04:37;;;;;;;7.03;4.30;;;7.30;99.90;;;;;;5035652;28;20184;-68
2021/11/24 01:07:03;;;;;;;6.33;3.60;;;7.30;99.90;;;;;;5035402;28;20181;-69
2021/11/24 01:09:28;;;;;;;9.63;4.50;;;7.30;99.90;;;;;;5035588;28;20593;-68
2021/11/24 01:11:54;;;;;;;6.60;3.63;;;7.30;99.90;;;;;;5035614;28;20172;-69
2021/11/24 01:14:20;;;;;;;8.77;4.30;;;7.30;99.90;;;;;;5034067;28;20251;-69
2021/11/24 01:16:46;;;;;;;9.97;3.70;;;7.30;99.90;;;;;;5035721;28;20248;-70
2021/11/24 01:19:11;;;;;;;4.87;3.70;;;7.30;99.90;;;;;;5035414;28;20168;-68
2021/11/24 01:21:37;;;;;;;7.00;3.80;;;7.30;99.90;;;;;;5035093;28;20184;-69
2021/11/24 01:24:03;;;;;;;7.17;3.87;;;7.30;99.90;;;;;;5035444;28;20517;-70
2021/11/24 01:26:29;;;;;;;15.03;3.87;;;7.20;99.90;;;;;;5035651;28;20195;-70
2021/11/24 01:28:54;;;;;;;7.33;3.13;;;7.30;99.90;;;;;;5035440;28;20833;-68
2021/11/24 01:31:20;;;;;;;5.47;3.43;;;7.30;99.90;;;;;;5034864;28;20540;-70
2021/11/24 01:33:46;;;;;;;5.07;3.30;;;7.30;99.90;;;;;;5034872;28;20225;-70
2021/11/24 01:36:12;;;;;;;5.07;3.90;;;7.30;99.90;;;;;;5034997;28;20494;-67
2021/11/24 01:38:38;;;;;;;5.50;4.20;;;7.30;99.90;;;;;;5035360;28;20715;-67
2021/11/24 01:41:03;;;;;;;6.20;3.87;;;7.30;99.90;;;;;;5034916;28;20229;-68
2021/11/24 01:43:29;;;;;;;6.60;3.03;;;7.30;99.90;;;;;;5033620;28;20179;-68
2021/11/24 01:45:54;;;;;;;7.13;4.40;;;7.20;99.90;;;;;;5035026;28;20172;-68
2021/11/24 01:48:24;;;;;;;7.07;4.33;;;7.20;99.90;;;;;;5035285;28;20175;-69
2021/11/24 01:50:49;;;;;;;5.63;3.63;;;7.30;99.90;;;;;;5034552;28;20199;-67
2021/11/24 01:53:15;;;;;;;8.67;4.60;;;7.30;99.90;;;;;;5034742;28;20415;-69
2021/11/24 01:55:41;;;;;;;3.60;2.50;;;7.30;99.90;;;;;;5034582;28;20196;-70
2021/11/24 01:58:06;;;;;;;6.53;3.83;;;7.20;99.90;;;;;;5034696;28;20172;-69
2021/11/24 02:00:33;;;;;;;5.80;2.90;;;7.20;99.90;;;;;;5033304;28;20200;-67
2021/11/24 02:02:59;;;;;;;6.97;4.27;;;7.20;99.90;;;;;;5035027;28;20190;-68
2021/11/24 02:05:25;;;;;;;3.97;3.00;;;7.20;99.90;;;;;;5034644;28;20419;-70
2021/11/24 02:07:51;;;;;;;6.60;4.03;;;7.20;99.90;;;;;;5034674;28;20932;-69
2021/11/24 02:10:20;;;;;;;6.40;3.23;;;7.20;99.90;;;;;;5034337;28;20994;-70
2021/11/24 02:12:46;;;;;;;4.70;3.20;;;7.20;99.90;;;;;;5033463;28;20472;-70
2021/11/24 02:15:12;;;;;;;6.43;2.80;;;7.20;99.90;;;;;;5034091;28;20463;-70
2021/11/24 02:17:37;;;;;;;5.07;3.90;;;7.30;99.90;;;;;;5034267;28;20317;-70
2021/11/24 02:20:05;;;;;;;9.93;3.40;;;7.20;99.90;;;;;;5034180;28;20197;-68
2021/11/24 02:22:31;;;;;;;7.17;3.50;;;7.20;99.90;;;;;;5030932;28;20458;-69
2021/11/24 02:24:57;;;;;;;12.43;3.77;;;7.20;99.90;;;;;;5034466;28;20406;-67
2021/11/24 02:27:22;;;;;;;5.00;3.17;;;7.10;99.90;;;;;;5034140;28;20176;-67
2021/11/24 02:29:48;;;;;;;6.73;2.90;;;7.20;99.90;;;;;;5034011;28;20445;-67
2021/11/24 02:32:15;;;;;;;7.10;3.10;;;7.20;99.90;;;;;;5034253;28;20890;-67
2021/11/24 02:34:41;;;;;;;4.97;3.07;;;7.20;99.90;;;;;;5034175;28;20615;-67
2021/11/24 02:37:07;;;;;;;7.40;2.90;;;7.20;99.90;;;;;;5033819;28;20418;-67
2021/11/24 02:39:32;;;;;;;6.17;3.43;;;7.30;99.90;;;;;;5034033;28;20295;-68
2021/11/24 02:41:59;;;;;;;6.40;3.53;;;7.20;99.90;;;;;;5033678;28;20173;-68
2021/11/24 02:44:26;;;;;;;2.90;2.40;;;7.20;99.90;;;;;;5033671;28;20178;-67
2021/11/24 02:46:54;;;;;;;7.40;3.60;;;7.20;99.90;;;;;;5033727;28;20468;-68
2021/11/24 02:49:19;;;;;;;7.03;3.60;;;7.20;99.90;;;;;;5033532;28;20452;-68
2021/11/24 02:51:45;;;;;;;5.03;3.17;;;7.10;99.90;;;;;;5033564;28;20406;-67
2021/11/24 02:54:11;;;;;;;5.13;3.07;;;7.20;99.90;;;;;;5033357;28;20458;-67
2021/11/24 02:56:39;;;;;;;7.90;4.40;;;7.20;99.90;;;;;;5033306;28;20400;-68
2021/11/24 02:59:06;;;;;;;5.27;3.90;;;7.20;99.90;;;;;;5033255;28;20520;-68
2021/11/24 03:01:32;;;;;;;3.93;2.50;;;7.10;99.90;;;;;;5033213;28;20425;-68
2021/11/24 03:03:57;;;;;;;7.80;4.30;;;7.10;99.90;;;;;;5033263;28;20412;-68
2021/11/24 03:06:23;;;;;;;5.43;3.70;;;7.10;99.90;;;;;;5033303;28;20179;-69
2021/11/24 03:08:49;;;;;;;4.43;2.90;;;7.10;99.90;;;;;;5033158;28;20168;-70
2021/11/24 03:11:14;;;;;;;5.03;3.30;;;7.10;99.90;;;;;;5033009;28;20201;-68
2021/11/24 03:13:40;;;;;;;6.33;2.50;;;7.10;99.90;;;;;;5033082;28;20172;-67
2021/11/24 03:16:05;;;;;;;4.17;3.07;;;7.20;99.90;;;;;;5033026;28;20608;-69
2021/11/24 03:18:31;;;;;;;5.43;2.73;;;7.20;99.90;;;;;;5033123;28;20180;-69
2021/11/24 03:20:56;;;;;;;9.10;3.60;;;7.20;99.90;;;;;;5032661;28;20198;-68
2021/11/24 03:23:22;;;;;;;5.67;3.17;;;7.20;99.90;;;;;;5033018;28;20169;-67
2021/11/24 03:25:48;;;;;;;4.93;3.10;;;7.20;99.90;;;;;;5032900;28;20172;-69
2021/11/24 03:28:13;;;;;;;3.07;2.53;;;7.20;99.90;;;;;;5033051;28;20528;-69
2021/11/24 03:30:39;;;;;;;4.43;2.80;;;7.10;99.90;;;;;;5032825;28;20195;-69
2021/11/24 03:33:06;;;;;;;5.43;3.30;;;7.10;99.90;;;;;;5032723;28;20206;-69
2021/11/24 03:35:34;;;;;;;7.30;3.80;;;7.00;99.90;;;;;;5032705;28;20579;-69
2021/11/24 03:38:10;;;;;;;4.00;2.20;;;7.10;99.90;;;;;;5032775;28;20920;-69
2021/11/24 03:40:36;;;;;;;4.57;3.80;;;7.10;99.90;;;;;;5028792;28;20438;-68
2021/11/24 03:43:02;;;;;;;3.83;2.80;;;7.10;99.90;;;;;;5032601;28;20897;-68
2021/11/24 03:45:31;;;;;;;3.23;2.93;;;7.10;99.90;;;;;;5031231;28;20186;-68
2021/11/24 03:48:05;;;;;;;3.63;3.33;;;7.10;99.90;;;;;;5032605;28;20411;-67
2021/11/24 03:50:31;;;;;;;3.97;3.27;;;7.00;99.90;;;;;;5032288;28;20422;-68
2021/11/24 03:52:57;;;;;;;7.20;3.40;;;7.10;99.90;;;;;;5032726;28;20991;-69
2021/11/24 03:55:24;;;;;;;4.40;3.27;;;7.10;99.90;;;;;;5032115;28;20514;-68
2021/11/24 03:57:50;;;;;;;5.30;3.10;;;7.00;99.90;;;;;;5032416;28;20922;-68
2021/11/24 04:00:27;;;;;;;7.93;3.03;;;7.00;99.90;;;;;;5032210;28;20428;-66
2021/11/24 04:02:53;;;;;;;4.33;3.67;;;7.10;99.90;;;;;;5032435;28;20806;-67
2021/11/24 04:05:22;;;;;;;3.03;2.70;;;7.10;99.90;;;;;;5032017;28;20526;-69
2021/11/24 04:07:51;;;;;;;5.77;2.70;;;7.10;99.90;;;;;;5032414;28;20407;-68
2021/11/24 04:10:19;;;;;;;2.40;2.20;;;7.10;99.90;;;;;;5030825;28;20466;-68
2021/11/24 04:12:48;;;;;;;2.93;2.33;;;7.10;99.90;;;;;;5032256;28;20425;-69
2021/11/24 04:15:22;;;;;;;8.13;2.60;;;7.00;99.90;;;;;;5031904;28;20450;-67
2021/11/24 04:17:48;;;;;;;3.90;2.90;;;7.10;99.90;;;;;;5032059;28;20390;-67
2021/11/24 04:20:17;;;;;;;3.50;2.60;;;7.00;99.90;;;;;;5031664;28;20419;-68
2021/11/24 04:22:46;;;;;;;2.93;2.60;;;7.10;99.90;;;;;;5031921;28;20427;-69
2021/11/24 04:25:13;;;;;;;4.77;3.63;;;7.10;99.90;;;;;;5031921;28;20756;-68
2021/11/24 04:27:41;;;;;;;4.83;2.80;;;7.00;99.90;;;;;;5032422;28;20447;-68
2021/11/24 04:30:08;;;;;;;5.87;2.77;;;7.10;99.90;;;;;;5031722;28;20431;-69
2021/11/24 04:32:34;;;;;;;13.10;3.73;;;7.00;99.90;;;;;;5031717;28;20412;-67
2021/11/24 04:34:59;;;;;;;4.60;2.63;;;7.10;99.90;;;;;;5031516;28;21039;-68
2021/11/24 04:37:25;;;;;;;5.37;3.40;;;7.10;99.90;;;;;;5031221;28;20195;-67
2021/11/24 04:39:51;;;;;;;7.27;3.50;;;7.10;99.90;;;;;;5031787;28;20218;-68
2021/11/24 04:42:17;;;;;;;3.67;2.40;;;7.10;99.90;;;;;;5031870;28;20194;-68
2021/11/24 04:44:43;;;;;;;4.67;2.70;;;7.10;99.90;;;;;;5031623;28;20409;-68
2021/11/24 04:47:08;;;;;;;4.90;3.40;;;7.10;99.90;;;;;;5031661;28;20255;-67
2021/11/24 04:49:34;;;;;;;6.10;3.10;;;7.10;99.90;;;;;;5031765;28;20195;-68
2021/11/24 04:52:00;;;;;;;6.00;3.77;;;7.10;99.90;;;;;;5031853;28;20183;-68
2021/11/24 04:54:25;;;;;;;3.87;3.47;;;7.10;99.90;;;;;;5031557;28;20250;-68
2021/11/24 04:56:51;;;;;;;2.80;2.60;;;7.10;99.90;;;;;;5031702;28;20218;-67
2021/11/24 04:59:16;;;;;;;5.20;2.90;;;7.10;99.90;;;;;;5031322;28;20647;-68
2021/11/24 05:01:42;;;;;;;3.63;3.10;;;7.10;99.90;;;;;;5031492;28;20256;-69
2021/11/24 05:04:08;;;;;;;2.90;2.33;;;7.10;99.90;;;;;;5031477;28;20222;-68
2021/11/24 05:06:36;;;;;;;5.73;2.73;;;7.10;99.90;;;;;;5031596;28;20203;-68
2021/11/24 05:09:02;;;;;;;4.83;3.53;;;7.10;99.90;;;;;;5031710;28;20175;-69
2021/11/24 05:11:27;;;;;;;3.63;3.03;;;7.10;99.90;;;;;;5030349;28;20800;-69
2021/11/24 05:13:56;;;;;;;3.63;3.20;;;7.10;99.90;;;;;;5031698;28;20186;-70
2021/11/24 05:16:30;;;;;;;3.33;3.03;;;7.10;99.90;;;;;;5031751;28;20169;-69
2021/11/24 05:18:59;;;;;;;4.60;2.70;;;7.10;99.90;;;;;;5030654;28;20413;-68
2021/11/24 05:21:34;;;;;;;3.77;2.20;;;7.00;99.90;;;;;;5031540;28;20446;-68
2021/11/24 05:24:00;;;;;;;5.93;3.30;;;7.00;99.90;;;;;;5031769;28;20762;-67
2021/11/24 05:26:27;;;;;;;4.70;2.80;;;7.00;99.90;;;;;;5031389;28;21265;-68
2021/11/24 05:28:52;;;;;;;2.73;2.40;;;7.00;99.90;;;;;;5031670;28;20391;-68
2021/11/24 05:31:19;;;;;;;3.80;2.77;;;7.10;99.90;;;;;;5031239;28;20421;-67
2021/11/24 05:33:46;;;;;;;4.10;3.47;;;7.10;99.90;;;;;;5031258;28;20170;-68
2021/11/24 05:36:12;;;;;;;2.80;2.20;;;7.00;99.90;;;;;;5031658;28;20406;-68
2021/11/24 05:38:38;;;;;;;4.73;4.40;;;7.00;99.90;;;;;;5031423;28;20938;-68
2021/11/24 05:41:04;;;;;;;6.97;3.10;;;7.00;99.90;;;;;;5031096;28;21011;-68
2021/11/24 05:43:30;;;;;;;4.10;2.53;;;7.00;99.90;;;;;;5031324;28;20388;-67
2021/11/24 05:48:23;;;;;;;6.30;3.13;;;7.00;99.90;;;;;;5034080;28;20410;-67
2021/11/24 05:50:50;;;;;;;3.77;2.17;;;7.10;99.90;;;;;;5034591;28;20537;-68
2021/11/24 05:53:18;;;;;;;3.87;2.73;;;7.10;99.90;;;;;;5034817;28;20945;-68
2021/11/24 05:55:45;;;;;;;6.57;3.37;;;7.10;99.90;;;;;;5034703;28;20531;-68
2021/11/24 05:58:16;;;;;;;4.27;3.87;;;7.10;99.90;;;;;;5034979;28;20494;-67
2021/11/24 06:00:45;;;;;;;3.70;2.50;;;7.10;99.90;;;;;;5034830;28;20465;-67
2021/11/24 06:03:12;;;;;;;3.80;3.03;;;7.10;99.90;;;;;;5033618;28;20437;-66
2021/11/24 06:05:38;;;;;;;3.27;2.37;;;7.10;99.90;;;;;;5034349;28;20415;-67
2021/11/24 06:08:04;;;;;;;4.13;2.67;;;7.10;99.90;;;;;;5034674;28;20498;-67
2021/11/24 06:10:31;;;;;;;3.40;2.80;;;7.00;99.90;;;;;;5034764;28;20920;-68
2021/11/24 06:12:59;;;;;;;4.90;3.57;;;7.00;99.90;;;;;;5033577;28;20418;-68
2021/11/24 06:15:25;;;;;;;6.27;3.60;;;7.00;99.90;;;;;;5034696;28;20869;-69
2021/11/24 06:17:51;;;;;;;4.87;3.37;;;7.00;99.90;;;;;;5035052;28;20408;-68
2021/11/24 06:20:20;;;;;;;4.20;2.73;;;7.00;99.90;;;;;;5035458;28;20286;-69
2021/11/24 06:22:46;;;;;;;2.93;2.10;;;7.00;99.90;;;;;;5034452;28;20465;-68
2021/11/24 06:25:12;;;;;;;10.77;3.13;;;7.00;99.90;;;;;;5035926;28;20407;-69
2021/11/24 06:27:42;;;;;;;6.30;3.77;;;7.00;99.90;;;;;;5035540;28;20842;-67
2021/11/24 06:30:10;;;;;;;4.07;2.50;;;7.00;99.90;;;;;;5035399;28;20429;-68
2021/11/24 06:32:36;;;;;;;6.90;4.33;;;7.10;99.90;;;;;;5033608;28;20403;-69
2021/11/24 06:35:02;;;;;;;8.93;4.40;;;7.10;99.90;;;;;;5034892;28;20450;-68
2021/11/24 06:37:34;;;;;;;5.10;3.33;;;7.10;99.90;;;;;;5034480;28;20814;-68
2021/11/24 06:40:02;;;;;;;4.43;2.97;;;7.10;99.90;;;;;;5034943;28;20477;-66
2021/11/24 06:42:44;;;;;;;;;;;;;;;;;;;;;
2021/11/24 06:45:11;;;;;;;6.40;3.20;;;7.20;99.90;;;;;;5033390;28;20766;-70
2021/11/24 06:47:40;;;;;;;3.20;2.70;;;7.20;99.90;;;;;;5034278;28;20407;-70
2021/11/24 06:50:08;;;;;;;6.07;4.60;;;7.20;99.90;;;;;;5033982;28;20508;-69
2021/11/24 06:52:34;;;;;;;4.80;2.90;;;7.20;99.90;;;;;;5033844;28;20420;-67
2021/11/24 06:54:59;;;;;;;6.97;4.30;;;7.20;99.90;;;;;;5033513;28;20458;-68
2021/11/24 06:57:25;;;;;;;4.13;2.60;;;7.20;99.90;;;;;;5033556;28;20172;-67
2021/11/24 06:59:51;;;;;;;6.70;3.33;;;7.20;99.90;;;;;;5032864;28;20690;-67
2021/11/24 07:02:16;;;;;;;7.17;4.07;;;7.20;99.90;;;;;;5033191;28;20168;-68
2021/11/24 07:04:59;;;;;;;4.63;2.60;;;7.30;99.90;;;;;;5033838;28;20255;-69
2021/11/24 07:07:28;;;;;;;5.83;4.07;;;7.20;99.90;;;;;;5032473;28;20271;-69
2021/11/24 07:09:56;;;;;;;5.90;4.00;;;7.30;99.90;;;;;;5032228;28;20996;-68
2021/11/24 07:12:25;;;;;;;5.97;3.57;;;7.30;99.90;;;;;;5033155;28;20421;-68
2021/11/24 07:14:52;;;;;;;5.67;4.00;;;7.40;99.90;;;;;;5032754;28;20980;-67
2021/11/24 07:17:18;;;;;;;6.70;3.60;;;7.40;99.90;;;;;;5032804;28;20762;-67
2021/11/24 07:19:43;;;;;;;6.00;4.00;;;7.30;99.90;;;;;;5032568;28;20423;-67
2021/11/24 07:22:09;;;;;;;9.87;5.63;;;7.40;99.90;;;;;;5032684;28;20181;-68
2021/11/24 07:24:34;;;;;;;6.73;3.70;;;7.40;99.90;;;;;;5032644;28;20183;-69
2021/11/24 07:27:00;;;;;;;7.23;3.63;;;7.40;99.90;;;;;;5032807;28;20184;-68
2021/11/24 07:29:25;;;;;;;3.90;3.10;;;7.40;99.90;;;;;;5032521;28;20207;-68
2021/11/24 07:31:51;;;;;;;3.13;2.83;;;7.40;99.90;;;;;;5032720;28;20242;-67
2021/11/24 07:34:17;;;;;;;5.13;4.13;;;7.30;99.90;;;;;;5032663;28;20203;-68
2021/11/24 07:36:42;;;;;;;5.00;2.77;;;7.30;99.90;;;;;;5032745;28;20202;-67
2021/11/24 07:39:08;;;;;;;5.93;3.43;;;7.30;99.90;;;;;;5032722;28;20168;-68
2021/11/24 07:41:34;;;;;;;6.20;3.47;;;7.30;99.90;;;;;;5032668;28;20192;-68
2021/11/24 07:43:59;;;;;;;8.00;3.63;;;7.30;99.90;;;;;;5032103;28;20172;-68
2021/11/24 07:46:25;;;;;;;7.43;3.73;;;7.30;99.90;;;;;;5032042;28;20168;-68
2021/11/24 07:48:51;;;;;;;7.13;4.03;;;7.30;99.90;;;;;;5032018;28;20174;-68
2021/11/24 07:51:17;;;;;;;6.30;4.13;;;7.30;99.90;;;;;;5031949;28;20200;-69
2021/11/24 07:53:44;;;;;;;6.80;4.30;;;7.30;99.90;;;;;;5032012;28;20244;-70
2021/11/24 07:56:10;;;;;;;7.60;3.23;;;7.40;99.90;;;;;;5031960;28;20841;-69
2021/11/24 07:58:36;;;;;;;7.50;4.10;;;7.50;99.90;;;;;;5031868;28;20490;-69
2021/11/24 08:01:01;;;;;;;9.37;5.57;;;7.50;99.90;;;;;;5031679;28;20556;-69
2021/11/24 08:03:27;;;;;;;7.27;4.40;;;7.50;99.90;;;;;;5031824;28;20168;-67
2021/11/24 08:05:53;;;;;;;5.47;3.53;;;7.50;99.90;;;;;;5031899;28;20259;-68
2021/11/24 08:08:18;;;;;;;7.53;4.57;;;7.60;99.90;;;;;;5031825;28;20539;-68
2021/11/24 08:10:44;;;;;;;10.50;4.43;;;7.50;99.90;;;;;;5030740;28;20208;-68
2021/11/24 08:13:10;;;;;;;9.77;4.67;;;7.50;99.90;;;;;;5031567;28;20226;-69
2021/11/24 08:15:35;;;;;;;5.10;4.17;;;7.60;99.90;;;;;;5031488;28;20454;-67
2021/11/24 08:18:01;;;;;;;9.03;3.40;;;7.50;99.90;;;;;;5031805;28;20271;-69
2021/11/24 08:20:27;;;;;;;7.97;4.80;;;7.60;99.90;;;;;;5031585;28;20211;-69
2021/11/24 08:22:53;;;;;;;7.23;4.67;;;7.60;99.90;;;;;;5031456;28;20176;-68
2021/11/24 08:25:18;;;;;;;7.57;4.70;;;7.50;99.90;;;;;;5031411;28;20486;-68
2021/11/24 08:27:44;;;;;;;5.70;3.50;;;7.50;99.90;;;;;;5031321;28;20175;-69
2021/11/24 08:30:10;;;;;;;10.63;5.47;;;7.60;99.90;;;;;;5031273;28;20214;-67
2021/11/24 08:32:36;;;;;;;6.13;3.60;;;7.60;99.90;;;;;;5031351;28;20644;-67
2021/11/24 08:35:04;;;;;;;8.63;5.10;;;7.60;99.90;;;;;;5031317;28;20455;-68
2021/11/24 08:37:30;;;;;;;5.87;2.87;;;7.60;99.90;;;;;;5031490;28;20167;-67
2021/11/24 08:39:55;;;;;;;2.57;2.13;;;7.60;99.90;;;;;;5031491;28;20427;-67
2021/11/24 08:42:25;;;;;;;6.00;3.63;;;7.70;99.90;;;;;;5031545;28;20170;-68
2021/11/24 08:44:51;;;;;;;5.27;3.47;;;7.90;99.90;;;;;;5031357;28;20706;-68
2021/11/24 08:47:18;;;;;;;7.57;3.30;;;7.80;99.90;;;;;;5031594;28;20491;-68
2021/11/24 08:49:43;;;;;;;6.77;4.10;;;7.70;99.90;;;;;;5031446;28;20270;-68
2021/11/24 08:52:09;;;;;;;4.90;2.73;;;7.90;99.90;;;;;;5031522;28;20393;-69
2021/11/24 08:54:37;;;;;;;5.57;3.73;;;7.90;99.90;;;;;;5031364;28;20548;-69
2021/11/24 08:57:03;;;;;;;4.30;3.13;;;8.40;99.90;;;;;;5026241;28;20817;-69
2021/11/24 08:59:29;;;;;;;4.17;3.30;;;8.40;99.90;;;;;;5030540;28;20409;-70
2021/11/24 09:01:55;;;;;;;9.33;4.20;;;8.50;99.90;;;;;;5026962;28;20406;-68
2021/11/24 09:04:22;;;;;;;4.47;3.13;;;8.50;99.90;;;;;;5031479;28;20522;-69
2021/11/24 09:06:48;;;;;;;4.20;3.33;;;8.50;99.90;;;;;;5027014;28;20430;-69
2021/11/24 09:09:14;;;;;;;4.37;2.50;;;8.70;99.90;;;;;;5031297;28;20415;-69
2021/11/24 09:11:40;;;;;;;4.23;3.13;;;8.20;99.90;;;;;;5030840;28;20486;-69
2021/11/24 09:14:06;;;;;;;4.60;3.40;;;8.00;99.90;;;;;;5027060;28;20414;-69
2021/11/24 09:16:32;;;;;;;6.20;3.00;;;8.40;99.90;;;;;;5031552;28;20992;-70
2021/11/24 09:18:58;;;;;;;3.50;2.93;;;8.60;99.90;;;;;;5030816;28;20417;-68
2021/11/24 09:21:24;;;;;;;3.70;2.10;;;8.60;99.90;;;;;;5030924;28;20192;-67
2021/11/24 09:23:51;;;;;;;7.57;3.40;;;8.40;99.90;;;;;;5034525;28;20419;-70
2021/11/24 09:26:26;;;;;;;3.73;3.30;;;8.00;99.90;;;;;;5035052;28;20498;-67
2021/11/24 09:28:53;;;;;;;5.57;2.93;;;8.10;99.90;;;;;;5034859;28;20788;-69
2021/11/24 09:31:19;;;;;;;6.03;2.83;;;8.60;99.90;;;;;;5030362;28;20586;-68
2021/11/24 09:33:45;;;;;;;5.90;3.30;;;8.40;99.90;;;;;;5034453;28;20474;-69
2021/11/24 09:36:12;;;;;;;5.30;3.20;;;8.30;99.90;;;;;;5034558;28;20795;-69
2021/11/24 09:38:38;;;;;;;8.10;2.87;;;8.50;99.90;;;;;;5034615;28;20218;-70
2021/11/24 09:41:09;;;;;;;6.23;3.87;;;8.20;99.90;;;;;;5034535;28;20834;-70
2021/11/24 09:43:40;;;;;;;5.67;3.03;;;8.50;99.90;;;;;;5034429;28;20399;-68
2021/11/24 09:46:07;;;;;;;8.17;4.30;;;8.30;99.90;;;;;;5034625;28;20436;-69
2021/11/24 09:48:34;;;;;;;3.93;3.40;;;8.80;99.90;;;;;;5034869;28;20489;-68
2021/11/24 09:51:00;;;;;;;3.67;2.00;;;8.80;99.90;;;;;;5034537;28;20428;-68
2021/11/24 09:53:28;;;;;;;4.00;3.40;;;9.00;99.90;;;;;;5034674;28;20402;-68
2021/11/24 09:55:54;;;;;;;6.93;3.93;;;8.60;99.90;;;;;;5034351;28;20514;-68
2021/11/24 09:58:20;;;;;;;5.60;3.73;;;8.60;99.90;;;;;;5034004;28;20893;-68
2021/11/24 10:00:46;;;;;;;6.57;2.97;;;8.80;99.90;;;;;;5034451;28;20188;-68
2021/11/24 10:03:13;;;;;;;4.70;3.37;;;9.10;99.90;;;;;;5034712;28;20167;-69
2021/11/24 10:05:39;;;;;;;5.63;3.70;;;9.40;99.90;;;;;;5033699;28;20422;-68
2021/11/24 10:08:06;;;;;;;7.37;3.93;;;9.10;99.90;;;;;;5034055;28;20726;-70
2021/11/24 10:10:31;;;;;;;7.47;3.70;;;8.60;99.90;;;;;;5034147;28;20185;-68
2021/11/24 10:12:57;;;;;;;5.30;2.80;;;8.90;99.90;;;;;;5034210;28;20500;-69
2021/11/24 10:15:35;;;;;;;6.60;4.17;;;8.60;99.90;;;;;;5034180;28;20219;-67
2021/11/24 10:18:40;;;;;;;5.20;3.20;;;8.80;99.90;;;;;;5034260;28;20170;-68
2021/11/24 10:21:09;;;;;;;7.20;4.23;;;9.20;99.90;;;;;;5034236;28;20418;-68
2021/11/24 10:23:46;;;;;;;9.80;4.00;;;9.30;99.90;;;;;;5033797;28;20418;-68
2021/11/24 10:26:23;;;;;;;4.90;2.70;;;9.40;99.90;;;;;;5033656;28;20398;-68
2021/11/24 10:28:49;;;;;;;6.17;3.90;;;9.30;99.90;;;;;;5033833;28;20489;-68
2021/11/24 10:31:23;;;;;;;7.23;4.10;;;9.20;99.90;;;;;;5033768;28;20567;-69
2021/11/24 10:33:49;;;;;;;5.33;3.67;;;9.20;99.90;;;;;;5032364;28;20167;-69
2021/11/24 10:36:15;;;;;;;4.30;3.80;;;9.30;99.90;;;;;;5033369;28;20786;-68
2021/11/24 10:38:46;;;;;;;4.43;3.43;;;9.30;99.90;;;;;;5032805;28;20168;-68
2021/11/24 10:41:24;;;;;;;5.53;3.63;;;9.30;99.90;;;;;;5030805;28;20438;-69
2021/11/24 10:43:49;;;;;;;4.20;3.27;;;9.60;99.90;;;;;;5033050;28;20456;-68
2021/11/24 10:46:17;;;;;;;5.57;2.77;;;9.50;99.90;;;;;;5033415;28;20486;-68
2021/11/24 10:48:43;;;;;;;5.57;4.17;;;9.40;99.90;;;;;;5033433;28;20172;-68
2021/11/24 10:51:50;;;;;;;7.13;4.57;;;9.30;99.90;;;;;;5031830;28;20470;-68
2021/11/24 10:54:18;;;;;;;4.37;3.00;;;8.90;99.90;;;;;;5010263;28;20460;-68
2021/11/24 10:57:07;;;;;;;5.03;3.40;;;8.90;99.90;;;;;;5010758;28;20434;-68
2021/11/24 10:59:37;;;;;;;5.13;3.40;;;9.00;99.90;;;;;;5016770;28;20438;-69
2021/11/24 11:02:23;;;;;;;3.33;3.03;;;9.00;99.90;;;;;;5033086;28;20514;-69
2021/11/24 11:05:01;;;;;;;3.93;2.60;;;8.60;99.90;;;;;;5029430;28;20984;-70
2021/11/24 11:07:32;;;;;;;6.83;3.00;;;8.70;99.90;;;;;;5013348;28;20465;-69
2021/11/24 11:10:05;;;;;;;4.27;2.80;;;9.00;99.90;;;;;;5013055;28;20499;-71
2021/11/24 11:12:32;;;;;;;3.57;2.90;;;8.70;99.90;;;;;;5013191;28;20417;-71
2021/11/24 11:15:22;;;;;;;4.77;3.13;;;8.50;99.90;;;;;;5030606;28;20459;-71
2021/11/24 11:17:56;;;;;;;4.80;3.00;;;8.50;99.90;;;;;;5030227;28;20412;-68
2021/11/24 11:20:24;;;;;;;3.83;3.07;;;8.40;99.90;;;;;;5013261;28;20797;-67
2021/11/24 11:23:13;;;;;;;4.93;2.90;;;8.70;99.90;;;;;;5012898;28;20425;-68
2021/11/24 11:25:47;;;;;;;7.00;2.43;;;8.90;99.90;;;;;;5011817;28;20416;-68
2021/11/24 11:28:13;;;;;;;3.30;2.13;;;8.90;99.90;;;;;;5013060;28;20409;-68
2021/11/24 11:30:43;;;;;;;5.80;2.80;;;9.00;99.90;;;;;;5012759;28;20461;-70
2021/11/24 11:33:10;;;;;;;6.07;2.50;;;9.20;99.90;;;;;;5013666;28;20403;-69
2021/11/24 11:35:36;;;;;;;3.37;2.53;;;8.90;99.90;;;;;;5013105;28;20538;-70
2021/11/24 11:38:02;;;;;;;5.83;2.77;;;8.90;99.90;;;;;;5012991;28;20502;-69
2021/11/24 11:40:28;;;;;;;3.97;2.60;;;9.00;99.90;;;;;;5012727;28;20536;-68
2021/11/24 11:42:58;;;;;;;6.93;2.33;;;9.20;99.90;;;;;;5030828;28;20418;-69
2021/11/24 11:45:29;;;;;;;3.27;2.67;;;9.50;99.90;;;;;;5032191;28;20409;-69
2021/11/24 11:47:57;;;;;;;3.00;2.20;;;9.20;99.90;;;;;;5032453;28;20938;-69
2021/11/24 11:50:37;;;;;;;3.63;2.00;;;9.00;99.90;;;;;;5032253;28;20439;-70
2021/11/24 11:53:23;;;;;;;5.67;2.00;;;8.80;99.90;;;;;;5032460;28;20426;-69
2021/11/24 11:56:11;;;;;;;5.40;3.20;;;9.00;99.90;;;;;;5032584;28;20449;-69
2021/11/24 11:58:53;;;;;;;4.77;2.00;;;9.10;99.90;;;;;;5032007;28;20399;-69
2021/11/24 12:01:40;;;;;;;4.00;3.07;;;9.20;99.90;;;;;;5012148;28;20501;-69
2021/11/24 12:04:06;;;;;;;5.00;2.50;;;8.70;99.90;;;;;;5012833;28;20416;-67
2021/11/24 12:06:39;;;;;;;4.67;2.60;;;8.60;99.90;;;;;;5029676;28;20426;-67
2021/11/24 12:09:12;;;;;;;2.47;2.27;;;8.60;99.90;;;;;;5015500;28;20903;-66
2021/11/24 12:15:05;;;;;;;5.37;1.73;;;8.30;99.90;;;;;;5012377;28;20531;-68
2021/11/24 12:17:32;;;;;;;3.87;2.43;;;8.50;99.90;;;;;;5012030;28;20411;-71
2021/11/24 12:20:03;;;;;;;3.50;2.27;;;8.40;99.90;;;;;;5010881;28;20911;-70
2021/11/24 12:22:55;;;;;;;2.03;1.73;;;8.40;99.90;;;;;;5011831;28;20819;-69
2021/11/24 12:25:24;;;;;;;2.53;1.50;;;8.80;99.90;;;;;;5011930;28;20768;-68
2021/11/24 12:27:53;;;;;;;5.60;2.23;;;8.60;99.90;;;;;;5012034;28;20428;-69
2021/11/24 12:33:06;;;;;;;3.77;2.33;;;8.60;99.90;;;;;;5011997;28;20463;-69
2021/11/24 12:35:34;;;;;;;3.20;2.00;;;8.60;99.90;;;;;;5011808;28;20953;-68
2021/11/24 12:38:00;;;;;;;2.13;1.70;;;8.40;99.90;;;;;;5011927;28;20628;-69
2021/11/24 12:40:31;;;;;;;3.20;2.60;;;8.50;99.90;;;;;;5012191;28;20433;-69
2021/11/24 12:42:58;;;;;;;2.77;2.33;;;8.70;99.90;;;;;;5030824;28;20415;-69
2021/11/24 12:45:24;;;;;;;6.73;2.93;;;8.80;99.90;;;;;;5031752;28;20930;-70
2021/11/24 12:47:57;;;;;;;4.23;2.93;;;8.40;99.90;;;;;;5031568;28;20408;-70
2021/11/24 12:50:27;;;;;;;4.57;2.63;;;8.50;99.90;;;;;;5031213;28;20196;-69
2021/11/24 12:53:05;;;;;;;1.70;1.50;;;8.50;99.90;;;;;;5031498;28;20907;-69
2021/11/24 12:55:33;;;;;;;2.80;1.90;;;8.40;99.90;;;;;;5031302;28;20453;-69
2021/11/24 12:58:22;;;;;;;4.20;1.80;;;8.50;99.90;;;;;;5033627;28;20438;-69
2021/11/24 13:00:48;;;;;;;2.50;2.27;;;8.50;99.90;;;;;;5034190;28;20852;-69
2021/11/24 13:03:14;;;;;;;2.40;1.73;;;8.40;99.90;;;;;;5033229;28;20429;-71
2021/11/24 13:05:40;;;;;;;3.67;2.00;;;8.40;99.90;;;;;;5034003;28;20170;-68
2021/11/24 13:08:06;;;;;;;1.17;1.07;;;8.50;99.90;;;;;;5034451;28;20207;-69
2021/11/24 13:10:32;;;;;;;4.30;1.30;;;8.90;99.90;;;;;;5034915;28;20750;-69